Terminal Aerodrome Forecast
Issued by NWS Paducah, KY

Home | Current Version | Previous Version | Text Only | Print | Product List | Glossary On
Versions: 1 2 3 4 5 6 7 8 9 10 11 12 13 14 15 16 17 18
000
FTUS43 KPAH 021720
TAFEVV
TAF
KEVV 021720Z 0218/0318 VRB04KT P6SM VCSH SCT012 BKN090
      TEMPO 0218/0221 BKN012
     FM030000 01003KT 6SM BR SCT010 BKN020
     FM030600 34003KT 4SM BR BKN007
     FM031400 02003KT P6SM BKN012=

USA.gov is the U.S. government's official web portal to all federal, state and local government web resources and services.